Maersk Flanders — PCFK — position and weather

sailwx.info

Track history (hours):
 
Tides and Currents Weather Stations Pressure Air Temp Water Temp Dewpoint Dewpoint Depression Visibility Wind Speed Wind Dir Waves Ship Positions

Maersk Flanders

Last reported at 2018-Apr-21 10:34 UTC. Time now 2018-Apr-22 08:45 UTC.
Position N 38°32' W 010°09'.

Length 111 m; draft 7.3 m.

Type: Ship (hazmat cat B). MMSI: 244889000.

Date/timePositionNaut miles runAvg speedWind from/ knotsBaromVisibWave heightAir tempDewpointWater temp
2018-Apr-21 10:34N 38°32' W 010°09'313.4
2018-Apr-21 10:19N 38°35' W 010°10'2113.1
2018-Apr-21 08:43N 38°56' W 010°12'313.1
2018-Apr-21 08:29N 38°59' W 010°12'713.1
2018-Apr-21 07:59N 39°06' W 010°12'612.9
2018-Apr-21 07:31N 39°12' W 010°12'912.9
2018-Apr-21 06:50N 39°20' W 010°13'613.0
2018-Apr-21 06:21N 39°27' W 010°13'62812.8
2018-Apr-19 05:10N 49°13' W 004°59'310.8
2018-Apr-19 04:53N 49°15' W 004°54'410.9
2018-Apr-19 04:30N 49°17' W 004°49'611.3
2018-Apr-19 03:57N 49°19' W 004°40'612.1
2018-Apr-19 03:29N 49°22' W 004°33'612.6
2018-Apr-19 03:00N 49°25' W 004°25'2413.8
2018-Apr-19 01:17N 49°38' W 003°53'414.4
2018-Apr-19 01:00N 49°40' W 003°48'714.3
2018-Apr-19 00:30N 49°43' W 003°38'713.9
2018-Apr-19 00:00N 49°46' W 003°29'713.3
2018-Apr-18 23:30N 49°50' W 003°20'712.5
2018-Apr-18 22:59N 49°53' W 003°11'711.5
2018-Apr-18 22:24N 49°56' W 003°02'410.8
2018-Apr-18 22:00N 49°58' W 002°56'510.4
2018-Apr-18 21:30N 49°60' W 002°48'5 9.9
2018-Apr-18 21:00N 50°01' W 002°41'5 9.8
2018-Apr-18 20:29N 50°02' W 002°33'610.1
2018-Apr-18 19:56N 50°04' W 002°25'1511.2
2018-Apr-18 18:36N 50°07' W 002°02'112.7
2018-Apr-18 18:29N 50°08' W 002°00'613.5
2018-Apr-18 18:00N 50°10' W 001°51'714.8
2018-Apr-18 17:31N 50°12' W 001°40'815.9
2018-Apr-18 17:01N 50°14' W 001°28'816.7
2018-Apr-18 16:30N 50°16' W 001°15'917.2
2018-Apr-18 16:00N 50°18' W 001°02'917.1
2018-Apr-18 15:30N 50°21' W 000°49'816.5
2018-Apr-18 15:00N 50°23' W 000°36'816.0
2018-Apr-18 14:30N 50°25' W 000°25'715.0
2018-Apr-18 14:00N 50°27' W 000°13'714.3
2018-Apr-18 13:30N 50°29' W 000°03'713.6
2018-Apr-18 13:00N 50°31' E 000°08'612.8
2018-Apr-18 12:30N 50°33' E 000°17'612.0
2018-Apr-18 12:00N 50°35' E 000°27'611.7
2018-Apr-18 11:31N 50°36' E 000°35'611.7
2018-Apr-18 11:01N 50°40' E 000°43'611.8
2018-Apr-18 10:30N 50°43' E 000°51'612.4
2018-Apr-18 10:00N 50°46' E 000°59'713.4
2018-Apr-18 09:30N 50°50' E 001°08'714.6
2018-Apr-18 09:00N 50°55' E 001°17'816.3
2018-Apr-18 08:30N 51°00' E 001°26'816.7
2018-Apr-18 08:00N 51°07' E 001°35'816.0
2018-Apr-18 07:30N 51°13' E 001°43'714.8
2018-Apr-18 07:00N 51°19' E 001°49'713.6
2018-Apr-18 06:30N 51°25' E 001°54'612.8
2018-Apr-18 06:00N 51°30' E 002°00'612.4
2018-Apr-18 05:30N 51°35' E 002°06'612.0
2018-Apr-18 05:00N 51°40' E 002°13'611.5
2018-Apr-18 04:30N 51°44' E 002°19'611.5
2018-Apr-18 03:59N 51°48' E 002°26'511.3
2018-Apr-18 03:31N 51°52' E 002°31'611.2
2018-Apr-18 02:56N 51°57' E 002°37'6012.3
2018-Apr-17 22:04N 52°31' E 003°58'213.9
2018-Apr-17 21:57N 52°31' E 004°01'613.8
2018-Apr-17 21:30N 52°31' E 004°11'713.3
2018-Apr-17 21:00N 52°30' E 004°22'612.1
2018-Apr-17 20:30N 52°28' E 004°31'3 6.2
2018-Apr-17 20:01N 52°28' E 004°36'0 0.0
2018-Apr-17 19:30N 52°28' E 004°36'1 1.5
2018-Apr-17 19:00N 52°28' E 004°38'4 8.2
2018-Apr-17 18:31N 52°26' E 004°44'2 3.9
2018-Apr-17 17:54N 52°24' E 004°46'0 0.0
2018-Apr-17 17:30N 52°24' E 004°46'0 0.0
2018-Apr-17 17:00N 52°24' E 004°46'0 0.0
2018-Apr-17 16:27N 52°24' E 004°46'0 0.0
2018-Apr-17 16:00N 52°24' E 004°46'0 0.0
2018-Apr-17 15:27N 52°24' E 004°46'0 0.0
2018-Apr-17 14:57N 52°24' E 004°46'0 0.0
2018-Apr-17 14:30N 52°24' E 004°46'0 0.0
2018-Apr-17 13:57N 52°24' E 004°46'0 0.0
2018-Apr-17 13:30N 52°24' E 004°46'0 0.0
2018-Apr-17 12:51N 52°24' E 004°46'0 0.0
2018-Apr-17 12:30N 52°24' E 004°46'0 0.0
2018-Apr-17 12:00N 52°24' E 004°46'0 0.0
2018-Apr-17 11:30N 52°24' E 004°46'0 0.0
2018-Apr-17 10:48N 52°24' E 004°46'0 0.0
2018-Apr-17 10:27N 52°24' E 004°46'0 0.0
2018-Apr-17 10:00N 52°24' E 004°46'0 0.0
2018-Apr-17 09:27N 52°24' E 004°46'0 0.0
2018-Apr-17 08:57N 52°24' E 004°46'0 0.0
2018-Apr-17 08:24N 52°24' E 004°46'0 0.0
2018-Apr-17 08:00N 52°24' E 004°46'0 0.0
2018-Apr-17 07:30N 52°24' E 004°46'0 0.0
2018-Apr-17 07:00N 52°24' E 004°46'0 0.0
2018-Apr-17 06:30N 52°24' E 004°46'0 0.0
2018-Apr-17 05:57N 52°24' E 004°46'0 0.0
2018-Apr-17 05:30N 52°24' E 004°46'0 0.0
2018-Apr-17 05:00N 52°24' E 004°46'0 0.0
2018-Apr-17 04:27N 52°24' E 004°46'0 0.0
2018-Apr-17 04:00N 52°24' E 004°46'0 0.0
2018-Apr-17 03:30N 52°24' E 004°46'0 0.0
2018-Apr-17 02:51N 52°24' E 004°46'0 0.0
2018-Apr-17 02:27N 52°24' E 004°46'0 0.0
2018-Apr-17 02:00N 52°24' E 004°46'0 0.0
2018-Apr-17 01:30N 52°24' E 004°46'0 0.0
2018-Apr-17 01:00N 52°24' E 004°46'0 0.0
2018-Apr-17 00:27N 52°24' E 004°46'0 0.0
2018-Apr-17 00:00N 52°24' E 004°46'0 0.0
2018-Apr-16 23:30N 52°24' E 004°46'0 0.0
2018-Apr-16 23:00N 52°24' E 004°46'0 0.0
2018-Apr-16 22:30N 52°24' E 004°46'0 0.0
2018-Apr-16 22:00N 52°24' E 004°46'0 0.0
2018-Apr-16 21:24N 52°24' E 004°46'0 0.0
2018-Apr-16 21:00N 52°24' E 004°46'0 0.0
2018-Apr-16 20:30N 52°24' E 004°46'0 0.0
2018-Apr-16 19:57N 52°24' E 004°46'0 0.0
2018-Apr-16 19:21N 52°24' E 004°46'0 0.0
2018-Apr-16 19:00N 52°24' E 004°46'0 0.0
2018-Apr-16 18:30N 52°24' E 004°46'0 0.0
2018-Apr-16 17:51N 52°24' E 004°46'0 0.0
2018-Apr-16 17:30N 52°24' E 004°46'0 0.0
2018-Apr-16 17:00N 52°24' E 004°46'0 0.0
2018-Apr-16 16:27N 52°24' E 004°46'0 0.0
2018-Apr-16 16:00N 52°24' E 004°46'0 0.0
2018-Apr-16 15:27N 52°24' E 004°46'0 0.0
2018-Apr-16 14:57N 52°24' E 004°46'0 0.0
2018-Apr-16 14:27N 52°24' E 004°46'0 0.0
2018-Apr-16 13:54N 52°24' E 004°46'0 0.0
2018-Apr-16 13:24N 52°24' E 004°46'0 0.0
2018-Apr-16 13:00N 52°24' E 004°46'0 0.0
2018-Apr-16 12:30N 52°24' E 004°46'0 0.0
2018-Apr-16 12:00N 52°24' E 004°46'1 2.8
2018-Apr-16 11:31N 52°26' E 004°46'3 6.6
2018-Apr-16 11:01N 52°27' E 004°41'3 5.5
2018-Apr-16 10:30N 52°28' E 004°37'1 1.2
2018-Apr-16 10:00N 52°28' E 004°36'2 3.9
2018-Apr-16 09:30N 52°28' E 004°32'5 9.9
2018-Apr-16 09:00N 52°28' E 004°24'3 6.3
2018-Apr-16 08:30N 52°31' E 004°21'2 4.8
2018-Apr-16 08:00N 52°32' E 004°18'0 0.1
2018-Apr-16 07:30N 52°32' E 004°18'0 0.1
2018-Apr-16 06:58N 52°32' E 004°18'0 0.0
2018-Apr-16 06:30N 52°32' E 004°18'0 0.0
2018-Apr-16 06:00N 52°32' E 004°18'0 0.0
2018-Apr-16 05:30N 52°32' E 004°18'0 0.0
2018-Apr-16 05:00N 52°32' E 004°18'0 0.0
2018-Apr-16 04:30N 52°32' E 004°18'0 0.0
2018-Apr-16 04:00N 52°32' E 004°18'0 0.0
2018-Apr-16 03:30N 52°32' E 004°18'0 0.0
2018-Apr-16 03:00N 52°32' E 004°18'0 0.1
2018-Apr-16 02:30N 52°32' E 004°18'0 0.0
2018-Apr-16 02:00N 52°32' E 004°18'0 0.0
2018-Apr-16 01:30N 52°32' E 004°18'0 0.0
2018-Apr-16 01:00N 52°32' E 004°17'0 0.0
2018-Apr-16 00:30N 52°32' E 004°18'0 0.2
2018-Apr-16 00:00N 52°32' E 004°18'0 0.0
2018-Apr-15 23:30N 52°32' E 004°17'0 0.1
2018-Apr-15 23:00N 52°32' E 004°18'0 0.1
2018-Apr-15 22:30N 52°32' E 004°17'0 0.0
2018-Apr-15 22:00N 52°32' E 004°17'0 0.0
2018-Apr-15 21:30N 52°32' E 004°17'0 0.0
2018-Apr-15 21:00N 52°32' E 004°17'0 0.1
2018-Apr-15 20:30N 52°32' E 004°18'0 0.0
2018-Apr-15 20:00N 52°32' E 004°18'0 0.0
2018-Apr-15 19:30N 52°32' E 004°18'0 0.1
2018-Apr-15 19:00N 52°32' E 004°18'0 0.1
2018-Apr-15 18:30N 52°32' E 004°18'0 0.0
2018-Apr-15 18:00N 52°32' E 004°18'0 0.1
2018-Apr-15 17:30N 52°32' E 004°18'0 0.0
2018-Apr-15 17:00N 52°32' E 004°18'0 0.0
2018-Apr-15 16:30N 52°32' E 004°18'0 0.0
2018-Apr-15 16:00N 52°32' E 004°18'0 0.0
2018-Apr-15 15:30N 52°32' E 004°18'0 0.0
2018-Apr-15 15:00N 52°32' E 004°18'0 0.0
2018-Apr-15 14:30N 52°32' E 004°18'0 0.0
2018-Apr-15 14:00N 52°32' E 004°18'0 0.0
2018-Apr-15 13:30N 52°32' E 004°18'0 0.0
2018-Apr-15 13:00N 52°32' E 004°18'0 0.2
2018-Apr-15 12:30N 52°32' E 004°17'0 0.1
2018-Apr-15 12:00N 52°32' E 004°17'0 0.1
2018-Apr-15 11:30N 52°32' E 004°17'0 0.0
2018-Apr-15 11:00N 52°32' E 004°17'0 0.0
2018-Apr-15 10:30N 52°32' E 004°17'0 0.2
2018-Apr-15 10:00N 52°32' E 004°18'4 7.9
2018-Apr-15 09:30N 52°29' E 004°13'713.1
2018-Apr-15 09:00N 52°28' E 004°02'713.2
2018-Apr-15 08:29N 52°26' E 003°51'613.1
2018-Apr-15 08:00N 52°26' E 003°41'53 7.5
2018-Apr-15 00:59N 51°54' E 002°32'510.0
2018-Apr-15 00:29N 51°51' E 002°38'5 9.7
2018-Apr-15 00:00N 51°49' E 002°44'510.4
2018-Apr-14 23:29N 51°48' E 002°53'611.3
2018-Apr-14 22:55N 51°47' E 003°03'511.4
2018-Apr-14 22:26N 51°45' E 003°12'811.3
2018-Apr-14 21:46N 51°39' E 003°20'613.0
2018-Apr-14 21:18N 51°34' E 003°25'411.9
2018-Apr-14 20:59N 51°31' E 003°27'511.5
2018-Apr-14 20:31N 51°27' E 003°33'611.6
2018-Apr-14 20:00N 51°25' E 003°42'510.5
2018-Apr-14 19:30N 51°21' E 003°46'0 0.1
2018-Apr-14 19:00N 51°21' E 003°46'0 0.0
2018-Apr-14 18:29N 51°21' E 003°46'0 0.0
2018-Apr-14 17:59N 51°21' E 003°46'0 0.0
2018-Apr-14 17:29N 51°21' E 003°46'0 0.0
2018-Apr-14 17:00N 51°21' E 003°46'0 0.0
2018-Apr-14 16:30N 51°21' E 003°46'0 0.0
2018-Apr-14 15:59N 51°21' E 003°46'0 0.0
2018-Apr-14 15:29N 51°21' E 003°46'0 0.0
2018-Apr-14 14:59N 51°21' E 003°46'0 0.0
2018-Apr-14 14:29N 51°21' E 003°46'0 0.0
2018-Apr-14 14:00N 51°21' E 003°46'0 0.0
2018-Apr-14 13:30N 51°21' E 003°46'0 0.0
2018-Apr-14 13:00N 51°21' E 003°46'0 0.0
2018-Apr-14 12:27N 51°21' E 003°46'0 0.0
2018-Apr-14 12:00N 51°21' E 003°46'0 0.0
2018-Apr-14 11:29N 51°21' E 003°46'0 0.0
2018-Apr-14 11:00N 51°21' E 003°46'0 0.0
2018-Apr-14 10:29N 51°21' E 003°46'0 0.0
2018-Apr-14 09:59N 51°21' E 003°46'0 0.0
2018-Apr-14 09:30N 51°21' E 003°46'0 0.0
2018-Apr-14 08:59N 51°21' E 003°46'0 0.0
2018-Apr-14 08:29N 51°21' E 003°46'0 0.0
2018-Apr-14 08:00N 51°21' E 003°46'0 0.0
2018-Apr-14 07:30N 51°21' E 003°46'0 0.0
2018-Apr-14 07:00N 51°21' E 003°46'0 0.0
2018-Apr-14 06:26N 51°21' E 003°46'0 0.0
2018-Apr-14 06:00N 51°21' E 003°46'0 0.0
2018-Apr-14 05:29N 51°21' E 003°46'0 0.0
2018-Apr-14 05:00N 51°21' E 003°46'0 0.0
2018-Apr-14 04:30N 51°21' E 003°46'0 0.0
2018-Apr-14 03:59N 51°21' E 003°46'0 0.0
2018-Apr-14 03:29N 51°21' E 003°46'0 0.0
2018-Apr-14 02:59N 51°21' E 003°46'0 0.0
2018-Apr-14 02:30N 51°21' E 003°46'0 0.0
2018-Apr-14 02:00N 51°21' E 003°46'0 0.0
2018-Apr-14 01:30N 51°21' E 003°46'0 0.0
2018-Apr-14 00:59N 51°21' E 003°46'0 0.0
2018-Apr-14 00:30N 51°21' E 003°46'0 0.0
2018-Apr-14 00:00N 51°21' E 003°46'0 0.0
2018-Apr-13 23:30N 51°21' E 003°46'0 0.0
2018-Apr-13 23:00N 51°21' E 003°46'0 0.0
2018-Apr-13 22:29N 51°21' E 003°46'0 0.0
2018-Apr-13 22:00N 51°21' E 003°46'0 0.0
2018-Apr-13 21:29N 51°21' E 003°46'0 0.0
2018-Apr-13 20:59N 51°21' E 003°46'0 0.0
2018-Apr-13 20:30N 51°21' E 003°46'0 0.0
2018-Apr-13 20:00N 51°21' E 003°46'0 0.0
2018-Apr-13 19:29N 51°21' E 003°46'0 0.0
2018-Apr-13 18:59N 51°21' E 003°46'0 0.0
2018-Apr-13 18:26N 51°21' E 003°46'0 0.0
2018-Apr-13 17:59N 51°21' E 003°46'0 0.0
2018-Apr-13 17:30N 51°21' E 003°46'0 0.0
2018-Apr-13 16:59N 51°21' E 003°46'0 0.0
2018-Apr-13 16:30N 51°21' E 003°46'0 0.0
2018-Apr-13 16:00N 51°21' E 003°46'0 0.0
2018-Apr-13 15:30N 51°21' E 003°46'0 0.0
2018-Apr-13 15:00N 51°21' E 003°46'0 0.0
2018-Apr-13 14:30N 51°21' E 003°46'2 3.2
2018-Apr-13 14:00N 51°22' E 003°44'4 9.0
2018-Apr-13 13:30N 51°26' E 003°41'4 8.4
2018-Apr-13 13:00N 51°26' E 003°34'5 9.4
2018-Apr-13 12:30N 51°29' E 003°29'510.6
2018-Apr-13 12:00N 51°34' E 003°25'712.8
2018-Apr-13 11:29N 51°40' E 003°19'611.0
2018-Apr-13 10:55N 51°45' E 003°14'410.0
2018-Apr-13 10:29N 51°48' E 003°09'25812.6
2018-Apr-12 13:59N 55°41' E 006°16'613.2
2018-Apr-12 13:29N 55°47' E 006°22'613.3
2018-Apr-12 13:00N 55°52' E 006°29'713.2
2018-Apr-12 12:30N 55°58' E 006°35'813.2
2018-Apr-12 11:51N 56°05' E 006°43'14513.5
2018-Apr-12 01:05N 57°48' E 009°49'1314.5
2018-Apr-12 00:10N 57°49' E 010°15'414.8
2018-Apr-11 23:53N 57°49' E 010°23'514.9
2018-Apr-11 23:30N 57°49' E 010°33'714.4
2018-Apr-11 23:00N 57°48' E 010°47'714.4
2018-Apr-11 22:30N 57°44' E 010°57'714.6
2018-Apr-11 22:00N 57°39' E 011°07'714.4
2018-Apr-11 21:30N 57°34' E 011°16'714.1
2018-Apr-11 21:00N 57°29' E 011°26'713.9
2018-Apr-11 20:30N 57°23' E 011°32'713.7
2018-Apr-11 20:00N 57°16' E 011°35'1213.8
2018-Apr-11 19:10N 57°05' E 011°41'213.9
2018-Apr-11 18:59N 57°03' E 011°42'6212.9
2018-Apr-11 14:14N 56°07' E 012°32'311.8
2018-Apr-11 14:00N 56°05' E 012°35'714.4
2018-Apr-11 13:30N 55°59' E 012°41'612.8
2018-Apr-11 13:01N 55°53' E 012°40'713.3
2018-Apr-11 12:31N 55°46' E 012°42'713.8
2018-Apr-11 12:00N 55°39' E 012°42'510.3
2018-Apr-11 11:30N 55°34' E 012°42'4 9.0
2018-Apr-11 11:00N 55°30' E 012°43'  
Track history (hours):
 
Tides and Currents Weather Stations Pressure Air Temp Water Temp Dewpoint Dewpoint Depression Visibility Wind Speed Wind Dir Waves Ship Positions

Maersk Flanders

Last reported at 2018-Apr-21 10:34 UTC. Time now 2018-Apr-22 08:45 UTC.
Position N 38°32' W 010°09'.

Length 111 m; draft 7.3 m.

Type: Ship (hazmat cat B). MMSI: 244889000.

Date/timePositionNaut miles runAvg speedWind from/ knotsBaromVisibWave heightAir tempDewpointWater temp
2018-Apr-21 10:34N 38°32' W 010°09'313.4
2018-Apr-21 10:19N 38°35' W 010°10'2113.1
2018-Apr-21 08:43N 38°56' W 010°12'313.1
2018-Apr-21 08:29N 38°59' W 010°12'713.1
2018-Apr-21 07:59N 39°06' W 010°12'612.9
2018-Apr-21 07:31N 39°12' W 010°12'912.9
2018-Apr-21 06:50N 39°20' W 010°13'613.0
2018-Apr-21 06:21N 39°27' W 010°13'62812.8
2018-Apr-19 05:10N 49°13' W 004°59'310.8
2018-Apr-19 04:53N 49°15' W 004°54'410.9
2018-Apr-19 04:30N 49°17' W 004°49'611.3
2018-Apr-19 03:57N 49°19' W 004°40'612.1
2018-Apr-19 03:29N 49°22' W 004°33'612.6
2018-Apr-19 03:00N 49°25' W 004°25'2413.8
2018-Apr-19 01:17N 49°38' W 003°53'414.4
2018-Apr-19 01:00N 49°40' W 003°48'714.3
2018-Apr-19 00:30N 49°43' W 003°38'713.9
2018-Apr-19 00:00N 49°46' W 003°29'713.3
2018-Apr-18 23:30N 49°50' W 003°20'712.5
2018-Apr-18 22:59N 49°53' W 003°11'711.5
2018-Apr-18 22:24N 49°56' W 003°02'410.8
2018-Apr-18 22:00N 49°58' W 002°56'510.4
2018-Apr-18 21:30N 49°60' W 002°48'5 9.9
2018-Apr-18 21:00N 50°01' W 002°41'5 9.8
2018-Apr-18 20:29N 50°02' W 002°33'610.1
2018-Apr-18 19:56N 50°04' W 002°25'1511.2
2018-Apr-18 18:36N 50°07' W 002°02'112.7
2018-Apr-18 18:29N 50°08' W 002°00'613.5
2018-Apr-18 18:00N 50°10' W 001°51'714.8
2018-Apr-18 17:31N 50°12' W 001°40'815.9
2018-Apr-18 17:01N 50°14' W 001°28'816.7
2018-Apr-18 16:30N 50°16' W 001°15'917.2
2018-Apr-18 16:00N 50°18' W 001°02'917.1
2018-Apr-18 15:30N 50°21' W 000°49'816.5
2018-Apr-18 15:00N 50°23' W 000°36'816.0
2018-Apr-18 14:30N 50°25' W 000°25'715.0
2018-Apr-18 14:00N 50°27' W 000°13'714.3
2018-Apr-18 13:30N 50°29' W 000°03'713.6
2018-Apr-18 13:00N 50°31' E 000°08'612.8
2018-Apr-18 12:30N 50°33' E 000°17'612.0
2018-Apr-18 12:00N 50°35' E 000°27'611.7
2018-Apr-18 11:31N 50°36' E 000°35'611.7
2018-Apr-18 11:01N 50°40' E 000°43'611.8
2018-Apr-18 10:30N 50°43' E 000°51'612.4
2018-Apr-18 10:00N 50°46' E 000°59'713.4
2018-Apr-18 09:30N 50°50' E 001°08'714.6
2018-Apr-18 09:00N 50°55' E 001°17'816.3
2018-Apr-18 08:30N 51°00' E 001°26'816.7
2018-Apr-18 08:00N 51°07' E 001°35'816.0
2018-Apr-18 07:30N 51°13' E 001°43'714.8
2018-Apr-18 07:00N 51°19' E 001°49'713.6
2018-Apr-18 06:30N 51°25' E 001°54'612.8
2018-Apr-18 06:00N 51°30' E 002°00'612.4
2018-Apr-18 05:30N 51°35' E 002°06'612.0
2018-Apr-18 05:00N 51°40' E 002°13'611.5
2018-Apr-18 04:30N 51°44' E 002°19'611.5
2018-Apr-18 03:59N 51°48' E 002°26'511.3
2018-Apr-18 03:31N 51°52' E 002°31'611.2
2018-Apr-18 02:56N 51°57' E 002°37'6012.3
2018-Apr-17 22:04N 52°31' E 003°58'213.9
2018-Apr-17 21:57N 52°31' E 004°01'613.8
2018-Apr-17 21:30N 52°31' E 004°11'713.3
2018-Apr-17 21:00N 52°30' E 004°22'612.1
2018-Apr-17 20:30N 52°28' E 004°31'3 6.2
2018-Apr-17 20:01N 52°28' E 004°36'0 0.0
2018-Apr-17 19:30N 52°28' E 004°36'1 1.5
2018-Apr-17 19:00N 52°28' E 004°38'4 8.2
2018-Apr-17 18:31N 52°26' E 004°44'2 3.9
2018-Apr-17 17:54N 52°24' E 004°46'0 0.0
2018-Apr-17 17:30N 52°24' E 004°46'0 0.0
2018-Apr-17 17:00N 52°24' E 004°46'0 0.0
2018-Apr-17 16:27N 52°24' E 004°46'0 0.0
2018-Apr-17 16:00N 52°24' E 004°46'0 0.0
2018-Apr-17 15:27N 52°24' E 004°46'0 0.0
2018-Apr-17 14:57N 52°24' E 004°46'0 0.0
2018-Apr-17 14:30N 52°24' E 004°46'0 0.0
2018-Apr-17 13:57N 52°24' E 004°46'0 0.0
2018-Apr-17 13:30N 52°24' E 004°46'0 0.0
2018-Apr-17 12:51N 52°24' E 004°46'0 0.0
2018-Apr-17 12:30N 52°24' E 004°46'0 0.0
2018-Apr-17 12:00N 52°24' E 004°46'0 0.0
2018-Apr-17 11:30N 52°24' E 004°46'0 0.0
2018-Apr-17 10:48N 52°24' E 004°46'0 0.0
2018-Apr-17 10:27N 52°24' E 004°46'0 0.0
2018-Apr-17 10:00N 52°24' E 004°46'0 0.0
2018-Apr-17 09:27N 52°24' E 004°46'0 0.0
2018-Apr-17 08:57N 52°24' E 004°46'0 0.0
2018-Apr-17 08:24N 52°24' E 004°46'0 0.0
2018-Apr-17 08:00N 52°24' E 004°46'0 0.0
2018-Apr-17 07:30N 52°24' E 004°46'0 0.0
2018-Apr-17 07:00N 52°24' E 004°46'0 0.0
2018-Apr-17 06:30N 52°24' E 004°46'0 0.0
2018-Apr-17 05:57N 52°24' E 004°46'0 0.0
2018-Apr-17 05:30N 52°24' E 004°46'0 0.0
2018-Apr-17 05:00N 52°24' E 004°46'0 0.0
2018-Apr-17 04:27N 52°24' E 004°46'0 0.0
2018-Apr-17 04:00N 52°24' E 004°46'0 0.0
2018-Apr-17 03:30N 52°24' E 004°46'0 0.0
2018-Apr-17 02:51N 52°24' E 004°46'0 0.0
2018-Apr-17 02:27N 52°24' E 004°46'0 0.0
2018-Apr-17 02:00N 52°24' E 004°46'0 0.0
2018-Apr-17 01:30N 52°24' E 004°46'0 0.0
2018-Apr-17 01:00N 52°24' E 004°46'0 0.0
2018-Apr-17 00:27N 52°24' E 004°46'0 0.0
2018-Apr-17 00:00N 52°24' E 004°46'0 0.0
2018-Apr-16 23:30N 52°24' E 004°46'0 0.0
2018-Apr-16 23:00N 52°24' E 004°46'0 0.0
2018-Apr-16 22:30N 52°24' E 004°46'0 0.0
2018-Apr-16 22:00N 52°24' E 004°46'0 0.0
2018-Apr-16 21:24N 52°24' E 004°46'0 0.0
2018-Apr-16 21:00N 52°24' E 004°46'0 0.0
2018-Apr-16 20:30N 52°24' E 004°46'0 0.0
2018-Apr-16 19:57N 52°24' E 004°46'0 0.0
2018-Apr-16 19:21N 52°24' E 004°46'0 0.0
2018-Apr-16 19:00N 52°24' E 004°46'0 0.0
2018-Apr-16 18:30N 52°24' E 004°46'0 0.0
2018-Apr-16 17:51N 52°24' E 004°46'0 0.0
2018-Apr-16 17:30N 52°24' E 004°46'0 0.0
2018-Apr-16 17:00N 52°24' E 004°46'0 0.0
2018-Apr-16 16:27N 52°24' E 004°46'0 0.0
2018-Apr-16 16:00N 52°24' E 004°46'0 0.0
2018-Apr-16 15:27N 52°24' E 004°46'0 0.0
2018-Apr-16 14:57N 52°24' E 004°46'0 0.0
2018-Apr-16 14:27N 52°24' E 004°46'0 0.0
2018-Apr-16 13:54N 52°24' E 004°46'0 0.0
2018-Apr-16 13:24N 52°24' E 004°46'0 0.0
2018-Apr-16 13:00N 52°24' E 004°46'0 0.0
2018-Apr-16 12:30N 52°24' E 004°46'0 0.0
2018-Apr-16 12:00N 52°24' E 004°46'1 2.8
2018-Apr-16 11:31N 52°26' E 004°46'3 6.6
2018-Apr-16 11:01N 52°27' E 004°41'3 5.5
2018-Apr-16 10:30N 52°28' E 004°37'1 1.2
2018-Apr-16 10:00N 52°28' E 004°36'2 3.9
2018-Apr-16 09:30N 52°28' E 004°32'5 9.9
2018-Apr-16 09:00N 52°28' E 004°24'3 6.3
2018-Apr-16 08:30N 52°31' E 004°21'2 4.8
2018-Apr-16 08:00N 52°32' E 004°18'0 0.1
2018-Apr-16 07:30N 52°32' E 004°18'0 0.1
2018-Apr-16 06:58N 52°32' E 004°18'0 0.0
2018-Apr-16 06:30N 52°32' E 004°18'0 0.0
2018-Apr-16 06:00N 52°32' E 004°18'0 0.0
2018-Apr-16 05:30N 52°32' E 004°18'0 0.0
2018-Apr-16 05:00N 52°32' E 004°18'0 0.0
2018-Apr-16 04:30N 52°32' E 004°18'0 0.0
2018-Apr-16 04:00N 52°32' E 004°18'0 0.0
2018-Apr-16 03:30N 52°32' E 004°18'0 0.0
2018-Apr-16 03:00N 52°32' E 004°18'0 0.1
2018-Apr-16 02:30N 52°32' E 004°18'0 0.0
2018-Apr-16 02:00N 52°32' E 004°18'0 0.0
2018-Apr-16 01:30N 52°32' E 004°18'0 0.0
2018-Apr-16 01:00N 52°32' E 004°17'0 0.0
2018-Apr-16 00:30N 52°32' E 004°18'0 0.2
2018-Apr-16 00:00N 52°32' E 004°18'0 0.0
2018-Apr-15 23:30N 52°32' E 004°17'0 0.1
2018-Apr-15 23:00N 52°32' E 004°18'0 0.1
2018-Apr-15 22:30N 52°32' E 004°17'0 0.0
2018-Apr-15 22:00N 52°32' E 004°17'0 0.0
2018-Apr-15 21:30N 52°32' E 004°17'0 0.0
2018-Apr-15 21:00N 52°32' E 004°17'0 0.1
2018-Apr-15 20:30N 52°32' E 004°18'0 0.0
2018-Apr-15 20:00N 52°32' E 004°18'0 0.0
2018-Apr-15 19:30N 52°32' E 004°18'0 0.1
2018-Apr-15 19:00N 52°32' E 004°18'0 0.1
2018-Apr-15 18:30N 52°32' E 004°18'0 0.0
2018-Apr-15 18:00N 52°32' E 004°18'0 0.1
2018-Apr-15 17:30N 52°32' E 004°18'0 0.0
2018-Apr-15 17:00N 52°32' E 004°18'0 0.0
2018-Apr-15 16:30N 52°32' E 004°18'0 0.0
2018-Apr-15 16:00N 52°32' E 004°18'0 0.0
2018-Apr-15 15:30N 52°32' E 004°18'0 0.0
2018-Apr-15 15:00N 52°32' E 004°18'0 0.0
2018-Apr-15 14:30N 52°32' E 004°18'0 0.0
2018-Apr-15 14:00N 52°32' E 004°18'0 0.0
2018-Apr-15 13:30N 52°32' E 004°18'0 0.0
2018-Apr-15 13:00N 52°32' E 004°18'0 0.2
2018-Apr-15 12:30N 52°32' E 004°17'0 0.1
2018-Apr-15 12:00N 52°32' E 004°17'0 0.1
2018-Apr-15 11:30N 52°32' E 004°17'0 0.0
2018-Apr-15 11:00N 52°32' E 004°17'0 0.0
2018-Apr-15 10:30N 52°32' E 004°17'0 0.2
2018-Apr-15 10:00N 52°32' E 004°18'4 7.9
2018-Apr-15 09:30N 52°29' E 004°13'713.1
2018-Apr-15 09:00N 52°28' E 004°02'713.2
2018-Apr-15 08:29N 52°26' E 003°51'613.1
2018-Apr-15 08:00N 52°26' E 003°41'53 7.5
2018-Apr-15 00:59N 51°54' E 002°32'510.0
2018-Apr-15 00:29N 51°51' E 002°38'5 9.7
2018-Apr-15 00:00N 51°49' E 002°44'510.4
2018-Apr-14 23:29N 51°48' E 002°53'611.3
2018-Apr-14 22:55N 51°47' E 003°03'511.4
2018-Apr-14 22:26N 51°45' E 003°12'811.3
2018-Apr-14 21:46N 51°39' E 003°20'613.0
2018-Apr-14 21:18N 51°34' E 003°25'411.9
2018-Apr-14 20:59N 51°31' E 003°27'511.5
2018-Apr-14 20:31N 51°27' E 003°33'611.6
2018-Apr-14 20:00N 51°25' E 003°42'510.5
2018-Apr-14 19:30N 51°21' E 003°46'0 0.1
2018-Apr-14 19:00N 51°21' E 003°46'0 0.0
2018-Apr-14 18:29N 51°21' E 003°46'0 0.0
2018-Apr-14 17:59N 51°21' E 003°46'0 0.0
2018-Apr-14 17:29N 51°21' E 003°46'0 0.0
2018-Apr-14 17:00N 51°21' E 003°46'0 0.0
2018-Apr-14 16:30N 51°21' E 003°46'0 0.0
2018-Apr-14 15:59N 51°21' E 003°46'0 0.0
2018-Apr-14 15:29N 51°21' E 003°46'0 0.0
2018-Apr-14 14:59N 51°21' E 003°46'0 0.0
2018-Apr-14 14:29N 51°21' E 003°46'0 0.0
2018-Apr-14 14:00N 51°21' E 003°46'0 0.0
2018-Apr-14 13:30N 51°21' E 003°46'0 0.0
2018-Apr-14 13:00N 51°21' E 003°46'0 0.0
2018-Apr-14 12:27N 51°21' E 003°46'0 0.0
2018-Apr-14 12:00N 51°21' E 003°46'0 0.0
2018-Apr-14 11:29N 51°21' E 003°46'0 0.0
2018-Apr-14 11:00N 51°21' E 003°46'0 0.0
2018-Apr-14 10:29N 51°21' E 003°46'0 0.0
2018-Apr-14 09:59N 51°21' E 003°46'0 0.0
2018-Apr-14 09:30N 51°21' E 003°46'0 0.0
2018-Apr-14 08:59N 51°21' E 003°46'0 0.0
2018-Apr-14 08:29N 51°21' E 003°46'0 0.0
2018-Apr-14 08:00N 51°21' E 003°46'0 0.0
2018-Apr-14 07:30N 51°21' E 003°46'0 0.0
2018-Apr-14 07:00N 51°21' E 003°46'0 0.0
2018-Apr-14 06:26N 51°21' E 003°46'0 0.0
2018-Apr-14 06:00N 51°21' E 003°46'0 0.0
2018-Apr-14 05:29N 51°21' E 003°46'0 0.0
2018-Apr-14 05:00N 51°21' E 003°46'0 0.0
2018-Apr-14 04:30N 51°21' E 003°46'0 0.0
2018-Apr-14 03:59N 51°21' E 003°46'0 0.0
2018-Apr-14 03:29N 51°21' E 003°46'0 0.0
2018-Apr-14 02:59N 51°21' E 003°46'0 0.0
2018-Apr-14 02:30N 51°21' E 003°46'0 0.0
2018-Apr-14 02:00N 51°21' E 003°46'0 0.0
2018-Apr-14 01:30N 51°21' E 003°46'0 0.0
2018-Apr-14 00:59N 51°21' E 003°46'0 0.0
2018-Apr-14 00:30N 51°21' E 003°46'0 0.0
2018-Apr-14 00:00N 51°21' E 003°46'0 0.0
2018-Apr-13 23:30N 51°21' E 003°46'0 0.0
2018-Apr-13 23:00N 51°21' E 003°46'0 0.0
2018-Apr-13 22:29N 51°21' E 003°46'0 0.0
2018-Apr-13 22:00N 51°21' E 003°46'0 0.0
2018-Apr-13 21:29N 51°21' E 003°46'0 0.0
2018-Apr-13 20:59N 51°21' E 003°46'0 0.0
2018-Apr-13 20:30N 51°21' E 003°46'0 0.0
2018-Apr-13 20:00N 51°21' E 003°46'0 0.0
2018-Apr-13 19:29N 51°21' E 003°46'0 0.0
2018-Apr-13 18:59N 51°21' E 003°46'0 0.0
2018-Apr-13 18:26N 51°21' E 003°46'0 0.0
2018-Apr-13 17:59N 51°21' E 003°46'0 0.0
2018-Apr-13 17:30N 51°21' E 003°46'0 0.0
2018-Apr-13 16:59N 51°21' E 003°46'0 0.0
2018-Apr-13 16:30N 51°21' E 003°46'0 0.0
2018-Apr-13 16:00N 51°21' E 003°46'0 0.0
2018-Apr-13 15:30N 51°21' E 003°46'0 0.0
2018-Apr-13 15:00N 51°21' E 003°46'0 0.0
2018-Apr-13 14:30N 51°21' E 003°46'2 3.2
2018-Apr-13 14:00N 51°22' E 003°44'4 9.0
2018-Apr-13 13:30N 51°26' E 003°41'4 8.4
2018-Apr-13 13:00N 51°26' E 003°34'5 9.4
2018-Apr-13 12:30N 51°29' E 003°29'510.6
2018-Apr-13 12:00N 51°34' E 003°25'712.8
2018-Apr-13 11:29N 51°40' E 003°19'611.0
2018-Apr-13 10:55N 51°45' E 003°14'410.0
2018-Apr-13 10:29N 51°48' E 003°09'25812.6
2018-Apr-12 13:59N 55°41' E 006°16'613.2
2018-Apr-12 13:29N 55°47' E 006°22'613.3
2018-Apr-12 13:00N 55°52' E 006°29'713.2
2018-Apr-12 12:30N 55°58' E 006°35'813.2
2018-Apr-12 11:51N 56°05' E 006°43'14513.5
2018-Apr-12 01:05N 57°48' E 009°49'1314.5
2018-Apr-12 00:10N 57°49' E 010°15'414.8
2018-Apr-11 23:53N 57°49' E 010°23'514.9
2018-Apr-11 23:30N 57°49' E 010°33'714.4
2018-Apr-11 23:00N 57°48' E 010°47'714.4
2018-Apr-11 22:30N 57°44' E 010°57'714.6
2018-Apr-11 22:00N 57°39' E 011°07'714.4
2018-Apr-11 21:30N 57°34' E 011°16'714.1
2018-Apr-11 21:00N 57°29' E 011°26'713.9
2018-Apr-11 20:30N 57°23' E 011°32'713.7
2018-Apr-11 20:00N 57°16' E 011°35'1213.8
2018-Apr-11 19:10N 57°05' E 011°41'213.9
2018-Apr-11 18:59N 57°03' E 011°42'6212.9
2018-Apr-11 14:14N 56°07' E 012°32'311.8
2018-Apr-11 14:00N 56°05' E 012°35'714.4
2018-Apr-11 13:30N 55°59' E 012°41'612.8
2018-Apr-11 13:01N 55°53' E 012°40'713.3
2018-Apr-11 12:31N 55°46' E 012°42'713.8
2018-Apr-11 12:00N 55°39' E 012°42'510.3
2018-Apr-11 11:30N 55°34' E 012°42'4 9.0
2018-Apr-11 11:00N 55°30' E 012°43'  

Dump ship's entire track history